Time;durP1;ratioP1;P1;durP2;ratioP2;P2;SDS_P1;SDS_P2;PMS_P1;PMS_P2;Temp;Humidity;BMP_temperature;BMP_pressure;BME280_temperature;BME280_humidity;BME280_pressure;Samples;Min_cycle;Max_cycle;Signal;HPM_P1;HPM_P2
2021/11/04 00:01:39;;;;;;;61.85;32.50;;;;;;;4.74;92.40;100382.59;5022718;28;20033;-48
2021/11/04 00:04:04;;;;;;;68.85;32.20;;;;;;;4.72;92.69;100381.09;5030745;28;20104;-47
2021/11/04 00:06:30;;;;;;;58.30;28.38;;;;;;;4.68;92.62;100377.03;5032588;28;20499;-48
2021/11/04 00:08:56;;;;;;;56.20;27.98;;;;;;;4.66;92.37;100381.69;5027375;28;20397;-47
2021/11/04 00:11:21;;;;;;;55.42;27.13;;;;;;;4.64;92.74;100381.03;5013129;28;20030;-48
2021/11/04 00:13:47;;;;;;;59.20;30.13;;;;;;;4.60;92.42;100383.16;5029584;28;20520;-47
2021/11/04 00:16:12;;;;;;;58.88;28.50;;;;;;;4.56;91.82;100382.63;5032464;28;20029;-47
2021/11/04 00:18:38;;;;;;;58.25;29.77;;;;;;;4.54;92.19;100383.78;5032592;28;20053;-47
2021/11/04 00:21:04;;;;;;;62.45;29.85;;;;;;;4.52;92.38;100389.25;5032570;28;20026;-50
2021/11/04 00:23:30;;;;;;;61.45;28.63;;;;;;;4.53;92.50;100390.06;5015011;28;20119;-48
2021/11/04 00:25:55;;;;;;;59.35;30.73;;;;;;;4.50;92.75;100377.94;5029307;28;20034;-47
2021/11/04 00:28:21;;;;;;;68.10;31.60;;;;;;;4.49;92.73;100381.56;5032293;28;20532;-48
2021/11/04 00:30:46;;;;;;;62.70;30.48;;;;;;;4.48;92.65;100390.56;5032367;28;20104;-49
2021/11/04 00:33:12;;;;;;;54.35;27.73;;;;;;;4.48;92.69;100379.06;5016971;28;20061;-48
2021/11/04 00:35:37;;;;;;;58.47;30.15;;;;;;;4.48;92.95;100382.56;5012473;28;20156;-48
2021/11/04 00:38:03;;;;;;;61.67;30.35;;;;;;;4.46;93.04;100381.88;5012740;28;20030;-49
2021/11/04 00:40:29;;;;;;;55.78;28.90;;;;;;;4.44;92.64;100378.53;5014750;28;20030;-48
2021/11/04 00:42:54;;;;;;;57.20;29.27;;;;;;;4.41;92.47;100384.16;5024670;28;20040;-47
2021/11/04 00:45:21;;;;;;;58.28;29.15;;;;;;;4.39;92.78;100380.81;5030502;28;20036;-48
2021/11/04 00:47:47;;;;;;;65.68;28.92;;;;;;;4.37;92.54;100372.13;5029497;28;20060;-46
2021/11/04 00:50:13;;;;;;;56.90;28.90;;;;;;;4.38;92.76;100366.66;5044240;28;20056;-48
2021/11/04 00:52:38;;;;;;;57.05;28.65;;;;;;;4.37;92.88;100377.44;5027888;28;20145;-48
2021/11/04 00:55:04;;;;;;;63.00;28.42;;;;;;;4.31;92.49;100370.06;5028981;28;20029;-50
2021/11/04 00:57:30;;;;;;;51.13;27.58;;;;;;;4.28;91.78;100365.06;5032148;28;20032;-50
2021/11/04 00:59:55;;;;;;;60.17;27.38;;;;;;;4.27;92.25;100366.06;5032093;28;20393;-45
2021/11/04 01:02:20;;;;;;;58.10;26.58;;;;;;;4.25;91.97;100368.03;5031951;28;20370;-48
2021/11/04 01:04:45;;;;;;;55.17;26.10;;;;;;;4.20;91.80;100365.00;5014425;28;20401;-49
2021/11/04 01:07:11;;;;;;;56.58;26.60;;;;;;;4.19;92.01;100366.81;5011316;28;20075;-50
2021/11/04 01:09:36;;;;;;;58.20;27.00;;;;;;;4.19;92.28;100369.50;5014149;28;20083;-48
2021/11/04 01:12:02;;;;;;;58.40;27.48;;;;;;;4.18;93.01;100368.63;5014773;28;20059;-48
2021/11/04 01:14:27;;;;;;;57.00;26.33;;;;;;;4.17;92.83;100363.47;5030211;28;20037;-50
2021/11/04 01:16:52;;;;;;;53.80;26.92;;;;;;;4.15;92.66;100363.59;5034546;28;20041;-48
2021/11/04 01:19:18;;;;;;;54.58;25.52;;;;;;;4.17;92.72;100363.47;5034302;28;20484;-48
2021/11/04 01:21:43;;;;;;;61.78;26.00;;;;;;;4.16;92.54;100365.31;5030887;28;20436;-48
2021/11/04 01:24:08;;;;;;;49.95;25.40;;;;;;;4.13;92.62;100365.59;5016701;28;20050;-47
2021/11/04 01:26:34;;;;;;;52.85;24.58;;;;;;;4.14;92.74;100361.94;5015736;28;20104;-47
2021/11/04 01:29:00;;;;;;;50.25;24.77;;;;;;;4.13;92.50;100360.28;5014622;28;20473;-47
2021/11/04 01:31:25;;;;;;;49.70;23.75;;;;;;;4.08;92.43;100351.91;5015766;28;20401;-47
2021/11/04 01:33:51;;;;;;;54.50;23.73;;;;;;;4.09;92.58;100352.75;5026021;28;20388;-47
2021/11/04 01:36:16;;;;;;;46.42;23.05;;;;;;;4.06;91.76;100348.56;5026537;28;20093;-48
2021/11/04 01:38:42;;;;;;;49.58;23.25;;;;;;;4.04;92.41;100355.84;5015521;28;20037;-47
2021/11/04 01:41:07;;;;;;;46.80;23.05;;;;;;;4.01;92.07;100353.50;5015666;28;20026;-46
2021/11/04 01:43:33;;;;;;;47.70;24.30;;;;;;;4.02;92.52;100351.66;5021825;28;20030;-47
2021/11/04 01:45:58;;;;;;;43.55;23.23;;;;;;;4.02;92.71;100352.50;5035055;28;20545;-45
2021/11/04 01:48:24;;;;;;;46.58;23.25;;;;;;;3.97;92.21;100350.28;5033878;28;20021;-49
2021/11/04 01:50:49;;;;;;;48.08;22.88;;;;;;;3.96;92.43;100353.13;5032271;28;20025;-47
2021/11/04 01:53:19;;;;;;;50.17;24.48;;;;;;;3.94;92.24;100347.94;5031112;28;20029;-46
2021/11/04 01:55:45;;;;;;;47.70;22.08;;;;;;;3.92;92.36;100357.06;5015314;28;20030;-48
2021/11/04 01:58:10;;;;;;;54.72;23.45;;;;;;;3.91;92.20;100352.72;5031941;28;20034;-48
2021/11/04 02:00:35;;;;;;;49.45;23.02;;;;;;;3.90;92.54;100359.88;5015252;28;20057;-46
2021/11/04 02:03:19;;;;;;;50.38;23.27;;;;;;;3.90;92.61;100353.72;5033224;28;20033;-46
2021/11/04 02:05:58;;;;;;;43.75;20.48;;;;;;;3.88;92.52;100351.19;5015464;28;20036;-48
2021/11/04 02:08:34;;;;;;;42.50;21.45;;;;;;;3.86;92.84;100350.50;5031459;28;20065;-47
2021/11/04 02:11:09;;;;;;;45.22;21.80;;;;;;;3.81;92.60;100349.28;5035023;28;20027;-48
2021/11/04 02:13:52;;;;;;;45.63;20.80;;;;;;;3.79;91.82;100351.25;5033675;28;20104;-50
2021/11/04 02:16:17;;;;;;;47.20;20.15;;;;;;;3.73;91.72;100350.88;5033213;28;20033;-47
2021/11/04 02:18:44;;;;;;;37.25;20.10;;;;;;;3.70;92.45;100353.84;5032530;28;20081;-47
2021/11/04 02:21:18;;;;;;;44.15;19.95;;;;;;;3.67;92.37;100354.13;5033162;28;20547;-50
2021/11/04 02:24:00;;;;;;;45.25;20.48;;;;;;;3.63;91.99;100350.09;5020428;28;20136;-47
2021/11/04 02:26:26;;;;;;;46.58;21.08;;;;;;;3.64;92.61;100348.28;5014472;28;20044;-48
2021/11/04 02:28:52;;;;;;;44.00;22.52;;;;;;;3.61;92.64;100343.28;5033239;28;20026;-47
2021/11/04 02:31:18;;;;;;;42.85;20.98;;;;;;;3.60;92.94;100347.72;5028968;28;20040;-48
2021/11/04 02:33:44;;;;;;;42.63;20.88;;;;;;;3.61;92.66;100338.78;5014371;28;20034;-47
2021/11/04 02:36:09;;;;;;;34.80;19.15;;;;;;;3.60;92.86;100336.25;5017023;28;20563;-48
2021/11/04 02:38:35;;;;;;;37.30;19.05;;;;;;;3.57;92.23;100339.22;5032918;28;20492;-47
2021/11/04 02:41:02;;;;;;;44.13;19.63;;;;;;;3.52;91.25;100342.31;5032904;28;20035;-47
2021/11/04 02:43:30;;;;;;;36.08;18.75;;;;;;;3.43;91.24;100335.25;5018808;28;20477;-47
2021/11/04 02:45:56;;;;;;;38.05;19.20;;;;;;;3.39;91.62;100339.16;5015063;28;20034;-48
2021/11/04 02:48:22;;;;;;;40.65;20.05;;;;;;;3.39;92.11;100336.50;5032777;28;20037;-47
2021/11/04 02:50:51;;;;;;;39.95;19.25;;;;;;;3.38;92.42;100337.50;4999961;28;20029;-48
2021/11/04 02:53:18;;;;;;;43.40;20.23;;;;;;;3.38;93.14;100333.00;5033680;28;20079;-48
2021/11/04 02:55:44;;;;;;;40.95;20.00;;;;;;;3.39;92.90;100339.16;5032404;28;20024;-48
2021/11/04 02:58:11;;;;;;;36.85;19.83;;;;;;;3.37;92.71;100339.34;5014301;28;20404;-49
2021/11/04 03:00:38;;;;;;;41.83;20.67;;;;;;;3.39;92.97;100344.50;5014226;28;20337;-48
2021/11/04 03:03:04;;;;;;;36.97;19.65;;;;;;;3.37;92.58;100342.00;5012987;28;20026;-50
2021/11/04 03:05:29;;;;;;;36.50;18.33;;;;;;;3.38;93.16;100348.16;5014282;28;20045;-50
2021/11/04 03:07:55;;;;;;;37.53;18.02;;;;;;;3.38;93.33;100353.47;5022668;28;20496;-48
2021/11/04 03:10:21;;;;;;;38.13;19.25;;;;;;;3.38;92.77;100348.16;5013827;28;20029;-47
2021/11/04 03:12:46;;;;;;;39.63;17.98;;;;;;;3.37;92.97;100346.44;4996222;28;20117;-47
2021/11/04 03:15:15;;;;;;;30.70;16.52;;;;;;;3.35;92.59;100343.13;5028889;28;20030;-47
2021/11/04 03:17:41;;;;;;;36.30;17.25;;;;;;;3.40;92.77;100346.19;5029955;28;20026;-50
2021/11/04 03:20:08;;;;;;;36.30;18.55;;;;;;;3.43;93.21;100351.19;5013633;28;20037;-48
2021/11/04 03:22:33;;;;;;;32.65;17.13;;;;;;;3.44;92.72;100351.03;5014075;28;20041;-48
2021/11/04 03:24:59;;;;;;;38.03;18.80;;;;;;;3.51;93.08;100361.94;5012478;28;20033;-50
2021/11/04 03:27:24;;;;;;;38.58;17.80;;;;;;;3.56;93.12;100359.66;5029702;28;20045;-48
2021/11/04 03:29:50;;;;;;;33.60;17.00;;;;;;;3.63;93.38;100357.22;5012362;28;20091;-49
2021/11/04 03:32:17;;;;;;;39.22;18.65;;;;;;;3.71;93.36;100371.50;5011880;28;20434;-47
2021/11/04 03:34:46;;;;;;;34.10;18.10;;;;;;;3.82;93.38;100369.59;5014511;28;20101;-48
2021/11/04 03:37:13;;;;;;;39.22;18.23;;;;;;;3.93;93.76;100364.06;5012217;28;20464;-46
2021/11/04 03:39:40;;;;;;;38.80;19.20;;;;;;;3.98;93.94;100369.78;5030917;28;20029;-49
2021/11/04 03:42:05;;;;;;;39.47;18.20;;;;;;;4.04;93.64;100371.81;5031960;28;20025;-50
2021/11/04 03:44:32;;;;;;;36.08;18.33;;;;;;;4.08;93.41;100373.22;5032427;28;20033;-51
2021/11/04 03:46:58;;;;;;;30.25;15.65;;;;;;;4.08;93.00;100367.88;5018279;28;20072;-47
2021/11/04 03:49:23;;;;;;;30.88;16.50;;;;;;;4.08;93.01;100370.56;5028019;28;20176;-48
2021/11/04 03:51:50;;;;;;;39.92;17.70;;;;;;;4.08;92.91;100372.34;5043951;28;20152;-50
2021/11/04 03:54:17;;;;;;;31.83;16.83;;;;;;;4.03;92.74;100372.81;5018590;28;20028;-49
2021/11/04 03:56:43;;;;;;;39.83;17.20;;;;;;;4.02;92.73;100381.78;5032939;28;20040;-48
2021/11/04 03:59:09;;;;;;;34.97;16.90;;;;;;;3.97;92.59;100381.41;5020405;28;20037;-49
2021/11/04 04:01:34;;;;;;;35.78;17.33;;;;;;;3.93;92.62;100386.19;5012232;28;20488;-49
2021/11/04 04:04:03;;;;;;;31.90;16.83;;;;;;;3.92;93.02;100394.31;5014775;28;20026;-49
2021/11/04 04:06:29;;;;;;;30.95;17.15;;;;;;;3.90;92.73;100391.81;5033699;28;20096;-48
2021/11/04 04:08:54;;;;;;;36.83;17.70;;;;;;;3.90;93.17;100396.31;5023690;28;20132;-50
2021/11/04 04:11:22;;;;;;;29.45;16.25;;;;;;;3.88;93.01;100395.63;5012672;28;20033;-50
2021/11/04 04:13:47;;;;;;;32.15;16.55;;;;;;;3.80;92.42;100395.53;5014399;28;20030;-48
2021/11/04 04:16:13;;;;;;;30.85;17.48;;;;;;;3.78;92.48;100393.00;5031785;28;20095;-48
2021/11/04 04:18:38;;;;;;;37.05;17.00;;;;;;;3.76;93.16;100391.50;5025293;28;20026;-49
2021/11/04 04:21:03;;;;;;;29.83;16.55;;;;;;;3.72;92.65;100389.13;5013768;28;20535;-49
2021/11/04 04:23:29;;;;;;;36.53;16.95;;;;;;;3.71;92.90;100392.78;5025151;28;20084;-49
2021/11/04 04:25:54;;;;;;;36.60;16.75;;;;;;;3.76;93.18;100386.16;5019221;28;20503;-48
2021/11/04 04:28:20;;;;;;;33.85;17.20;;;;;;;3.83;93.97;100390.75;5023279;28;20484;-49
2021/11/04 04:30:45;;;;;;;31.08;16.40;;;;;;;3.88;93.75;100390.31;5032948;28;20435;-51
2021/11/04 04:33:11;;;;;;;39.08;17.83;;;;;;;3.94;93.75;100395.03;5032830;28;20044;-47
2021/11/04 04:35:36;;;;;;;30.35;17.75;;;;;;;4.03;93.97;100395.94;5029537;28;20041;-48
2021/11/04 04:38:01;;;;;;;34.40;16.50;;;;;;;4.08;94.39;100398.97;5031286;28;20040;-46
2021/11/04 04:40:27;;;;;;;33.38;16.52;;;;;;;4.16;94.02;100391.06;5032521;28;20026;-47
2021/11/04 04:42:52;;;;;;;33.60;17.35;;;;;;;4.24;93.94;100403.63;5032573;28;20401;-47
2021/11/04 04:45:17;;;;;;;31.00;16.40;;;;;;;4.26;93.53;100386.50;5033144;28;20022;-49
2021/11/04 04:47:43;;;;;;;34.53;16.45;;;;;;;4.31;94.00;100391.38;5036181;28;20382;-48
2021/11/04 04:50:09;;;;;;;33.42;16.73;;;;;;;4.32;93.75;100399.25;5036473;28;20048;-47
2021/11/04 04:52:35;;;;;;;29.38;15.80;;;;;;;4.34;93.55;100393.75;5034669;28;20101;-47
2021/11/04 04:55:00;;;;;;;32.45;16.45;;;;;;;4.35;93.57;100398.09;5034884;28;20449;-48
2021/11/04 04:57:26;;;;;;;30.15;15.75;;;;;;;4.35;93.64;100406.94;5044975;28;20038;-49
2021/11/04 04:59:55;;;;;;;39.38;16.02;;;;;;;4.40;93.95;100409.97;5016545;28;20026;-49
2021/11/04 05:02:20;;;;;;;35.80;17.38;;;;;;;4.46;93.82;100415.69;5016094;28;20033;-47
2021/11/04 05:04:46;;;;;;;34.33;16.83;;;;;;;4.52;94.01;100413.22;5016353;28;20432;-48
2021/11/04 05:07:11;;;;;;;31.85;16.02;;;;;;;4.66;94.42;100421.66;5035960;28;20377;-48
2021/11/04 05:09:37;;;;;;;35.15;15.65;;;;;;;4.73;94.80;100406.75;5036077;28;20026;-48
2021/11/04 05:12:03;;;;;;;35.03;15.35;;;;;;;4.77;95.30;100410.78;5036074;28;20492;-49
2021/11/04 05:14:28;;;;;;;32.92;16.50;;;;;;;4.79;95.07;100414.97;5036049;28;20036;-48
2021/11/04 05:16:53;;;;;;;35.28;15.43;;;;;;;4.81;94.77;100406.78;5033899;28;20540;-48
2021/11/04 05:19:20;;;;;;;31.58;14.38;;;;;;;4.87;95.02;100416.00;5016981;28;20046;-48
2021/11/04 05:21:45;;;;;;;33.92;16.05;;;;;;;4.90;95.16;100416.56;5035930;28;20119;-47
2021/11/04 05:24:11;;;;;;;32.35;16.52;;;;;;;4.95;95.30;100416.91;5034038;28;20065;-47
2021/11/04 05:26:36;;;;;;;34.67;16.77;;;;;;;5.00;95.47;100421.75;5033517;28;20105;-46
2021/11/04 05:29:03;;;;;;;37.97;16.48;;;;;;;5.07;95.50;100422.81;5016204;28;20113;-48
2021/11/04 05:31:28;;;;;;;39.95;16.92;;;;;;;5.18;95.62;100435.06;5029812;28;20354;-45
2021/11/04 05:33:54;;;;;;;29.10;11.35;;;;;;;5.53;95.62;100435.91;5014691;28;20096;-48
2021/11/04 05:36:23;;;;;;;24.10;8.25;;;;;;;5.75;95.57;100439.88;5021691;28;20491;-46
2021/11/04 05:38:49;;;;;;;19.13;4.82;;;;;;;5.98;95.87;100443.69;5035242;28;20437;-46
2021/11/04 05:41:14;;;;;;;26.50;4.82;;;;;;;6.25;95.83;100441.75;5034919;28;20400;-51
2021/11/04 05:43:40;;;;;;;8.25;3.30;;;;;;;6.34;95.58;100436.22;5034800;28;20029;-54
2021/11/04 05:46:05;;;;;;;16.95;3.35;;;;;;;6.38;95.23;100445.59;5025009;28;20385;-56
2021/11/04 05:48:31;;;;;;;18.83;5.68;;;;;;;6.50;94.66;100447.94;5029347;28;20116;-56
2021/11/04 05:50:56;;;;;;;15.23;3.90;;;;;;;6.47;94.33;100437.59;5022325;28;20021;-52
2021/11/04 05:53:23;;;;;;;19.83;3.78;;;;;;;6.38;94.49;100429.56;5033579;28;20034;-56
2021/11/04 05:55:49;;;;;;;19.77;3.20;;;;;;;6.32;94.45;100435.56;5033230;28;20424;-58
2021/11/04 05:58:14;;;;;;;10.35;2.88;;;;;;;6.28;94.73;100434.22;5021158;28;20048;-58
2021/11/04 06:00:40;;;;;;;12.63;3.50;;;;;;;6.23;94.74;100441.06;5019489;28;20432;-53
2021/11/04 06:03:05;;;;;;;14.85;3.45;;;;;;;6.21;94.57;100440.38;5020670;28;20080;-51
2021/11/04 06:05:30;;;;;;;9.20;3.88;;;;;;;6.16;94.63;100440.88;5021381;28;20072;-50
2021/11/04 06:07:56;;;;;;;13.15;4.07;;;;;;;6.13;95.00;100449.22;5024614;28;20091;-49
2021/11/04 06:10:21;;;;;;;21.15;4.13;;;;;;;6.14;95.24;100445.56;5026891;28;20056;-46
2021/11/04 06:12:47;;;;;;;17.42;4.80;;;;;;;6.34;94.97;100449.59;5034929;28;20488;-48
2021/11/04 06:15:12;;;;;;;10.35;3.83;;;;;;;6.24;94.55;100451.59;5034712;28;20025;-48
2021/11/04 06:17:38;;;;;;;13.73;5.32;;;;;;;6.19;94.85;100450.38;5017075;28;20041;-48
2021/11/04 06:20:04;;;;;;;15.32;4.80;;;;;;;6.15;95.01;100449.88;5034690;28;20026;-48
2021/11/04 06:22:30;;;;;;;13.02;5.10;;;;;;;6.11;95.02;100445.88;5034649;28;20025;-48
2021/11/04 06:24:55;;;;;;;31.20;5.63;;;;;;;6.11;95.12;100456.56;5034693;28;20052;-49
2021/11/04 06:27:21;;;;;;;20.40;6.25;;;;;;;6.09;95.38;100456.72;5034638;28;20021;-48
2021/11/04 06:29:46;;;;;;;14.40;5.45;;;;;;;6.09;95.42;100455.91;5034687;28;20112;-46
2021/11/04 06:32:12;;;;;;;14.93;5.05;;;;;;;6.08;95.55;100457.75;5034424;28;20029;-47
2021/11/04 06:34:38;;;;;;;16.33;6.18;;;;;;;6.08;95.55;100460.41;5034414;28;20025;-48
2021/11/04 06:37:03;;;;;;;21.85;6.22;;;;;;;6.14;95.82;100451.72;5034212;28;20060;-47
2021/11/04 06:39:29;;;;;;;18.45;5.88;;;;;;;6.24;95.91;100458.75;5016189;28;20017;-46
2021/11/04 06:41:54;;;;;;;25.55;4.50;;;;;;;6.31;96.19;100471.31;5032950;28;20362;-48
2021/11/04 06:44:20;;;;;;;25.15;3.55;;;;;;;6.43;96.17;100463.00;5032976;28;20473;-47
2021/11/04 06:46:48;;;;;;;20.50;3.70;;;;;;;6.50;96.45;100461.31;5034119;28;20112;-47
2021/11/04 06:49:16;;;;;;;11.50;2.90;;;;;;;6.60;96.47;100472.69;5034470;28;20044;-47
2021/11/04 06:51:42;;;;;;;9.18;2.42;;;;;;;6.68;96.59;100471.88;5032482;28;20425;-46
2021/11/04 06:54:14;;;;;;;15.05;2.50;;;;;;;6.74;96.37;100482.75;5037894;28;20076;-46
2021/11/04 06:56:41;;;;;;;18.15;2.30;;;;;;;6.84;96.25;100487.09;5046896;28;20036;-50
2021/11/04 06:59:14;;;;;;;6.67;1.93;;;;;;;6.96;96.23;100497.31;5053570;28;20107;-55
2021/11/04 07:01:41;;;;;;;21.00;2.33;;;;;;;6.99;96.26;100486.28;5041815;28;20334;-49
2021/11/04 07:04:17;;;;;;;12.98;2.22;;;;;;;6.99;95.50;100483.59;5031146;28;20025;-50
2021/11/04 07:06:45;;;;;;;13.82;1.95;;;;;;;7.00;95.53;100479.06;5031616;28;20044;-50
2021/11/04 07:09:10;;;;;;;7.75;1.80;;;;;;;7.03;95.24;100486.78;5030009;28;20037;-54
2021/11/04 07:11:36;;;;;;;8.20;2.13;;;;;;;7.04;95.29;100493.81;5031955;28;20036;-57
2021/11/04 07:14:02;;;;;;;10.85;2.00;;;;;;;7.03;95.47;100497.50;5033849;28;20384;-55
2021/11/04 07:16:28;;;;;;;14.05;2.55;;;;;;;7.03;95.58;100506.34;5015638;28;20029;-53
2021/11/04 07:18:56;;;;;;;11.68;2.28;;;;;;;7.03;95.41;100513.53;5031776;28;20033;-54
2021/11/04 07:21:33;;;;;;;12.30;3.28;;;;;;;7.08;95.48;100515.69;5033316;28;20047;-56
2021/11/04 07:24:01;;;;;;;11.85;2.78;;;;;;;7.10;96.08;100522.56;5033194;28;20076;-57
2021/11/04 07:26:36;;;;;;;17.15;2.53;;;;;;;7.21;95.71;100527.59;5032074;28;20036;-56
2021/11/04 07:29:05;;;;;;;16.42;2.13;;;;;;;7.28;95.84;100514.34;5033390;28;20033;-55
2021/11/04 07:31:39;;;;;;;13.90;1.80;;;;;;;7.31;95.23;100511.34;5033131;28;20108;-57
2021/11/04 07:34:06;;;;;;;12.38;1.50;;;;;;;7.35;95.11;100517.22;5033023;28;20033;-58
2021/11/04 07:36:33;;;;;;;16.60;1.98;;;;;;;7.41;95.12;100516.53;5032608;28;20091;-55
2021/11/04 07:38:59;;;;;;;18.85;1.50;;;;;;;7.51;95.06;100519.03;5031154;28;20087;-55
2021/11/04 07:41:24;;;;;;;11.90;1.65;;;;;;;7.69;95.50;100520.50;5032302;28;20033;-52
2021/11/04 07:43:49;;;;;;;16.80;1.83;;;;;;;7.84;95.17;100519.78;5032659;28;20443;-51
2021/11/04 07:46:16;;;;;;;22.02;2.13;;;;;;;8.05;95.06;100514.66;5031085;28;20036;-54
2021/11/04 07:48:42;;;;;;;20.30;1.88;;;;;;;8.40;94.57;100523.28;5032771;28;20025;-51
2021/11/04 07:51:08;;;;;;;19.27;2.05;;;;;;;8.69;93.94;100516.38;5032960;28;20036;-49
2021/11/04 07:53:33;;;;;;;15.10;1.40;;;;;;;8.90;92.19;100518.44;5032459;28;20029;-49
2021/11/04 07:55:59;;;;;;;20.75;1.98;;;;;;;8.99;90.89;100518.19;5015018;28;20029;-48
2021/11/04 07:58:24;;;;;;;26.27;2.83;;;;;;;8.92;90.26;100511.88;5031755;28;20112;-49
2021/11/04 08:00:50;;;;;;;21.27;2.08;;;;;;;8.88;90.43;100517.78;5032764;28;20057;-49
2021/11/04 08:03:15;;;;;;;22.52;2.40;;;;;;;8.83;90.05;100512.94;5032879;28;20032;-51
2021/11/04 08:05:41;;;;;;;16.00;3.42;;;;;;;8.81;90.72;100514.97;5031529;28;20439;-50
2021/11/04 08:08:06;;;;;;;19.38;2.10;;;;;;;8.88;91.53;100504.38;5031543;28;20065;-51
2021/11/04 08:10:32;;;;;;;23.45;2.80;;;;;;;8.99;91.86;100514.69;5031567;28;20030;-50
2021/11/04 08:13:03;;;;;;;26.63;4.78;;;;;;;9.06;91.03;100512.09;5031299;28;20400;-52
2021/11/04 08:15:28;;;;;;;21.00;3.63;;;;;;;9.27;91.77;100506.91;5032767;28;20412;-50
2021/11/04 08:17:54;;;;;;;15.45;3.80;;;;;;;9.98;93.10;100509.16;5032376;28;20026;-51
2021/11/04 08:20:19;;;;;;;12.70;3.72;;;;;;;11.15;93.25;100512.59;5032727;28;20055;-48
2021/11/04 08:22:45;;;;;;;21.77;3.20;;;;;;;12.60;87.36;100523.66;5032895;28;20041;-49
2021/11/04 08:25:10;;;;;;;19.70;3.03;;;;;;;13.50;79.36;100519.63;5033164;28;20087;-48
2021/11/04 08:27:36;;;;;;;11.57;2.33;;;;;;;14.12;75.17;100522.84;5032936;28;20100;-48
2021/11/04 08:30:03;;;;;;;7.97;2.42;;;;;;;14.34;74.95;100519.84;5033233;28;20025;-47
2021/11/04 08:32:28;;;;;;;7.80;1.80;;;;;;;14.34;72.96;100531.50;5033369;28;20473;-47
2021/11/04 08:34:53;;;;;;;15.68;1.92;;;;;;;14.17;70.17;100520.34;5032816;28;20685;-46
2021/11/04 08:37:19;;;;;;;9.25;1.95;;;;;;;13.46;74.05;100529.22;5032451;28;20021;-47
2021/11/04 08:39:44;;;;;;;12.25;1.75;;;;;;;12.92;73.14;100530.97;5030978;28;20099;-47
2021/11/04 08:42:09;;;;;;;7.95;1.75;;;;;;;12.51;74.67;100531.94;5032254;28;20028;-47
2021/11/04 08:44:35;;;;;;;10.80;2.08;;;;;;;12.18;76.41;100536.34;5031974;28;20060;-48
2021/11/04 08:47:01;;;;;;;15.60;1.75;;;;;;;11.93;75.36;100534.16;5032165;28;20102;-47
2021/11/04 08:49:27;;;;;;;15.77;1.45;;;;;;;11.57;76.50;100532.41;5030784;28;20429;-47
2021/11/04 08:51:54;;;;;;;9.77;1.60;;;;;;;11.23;77.05;100538.56;5032199;28;20096;-47
2021/11/04 08:54:21;;;;;;;12.48;1.50;;;;;;;11.05;77.53;100538.19;5027217;28;20473;-47
2021/11/04 08:56:46;;;;;;;12.50;1.70;;;;;;;10.82;79.66;100543.75;5022561;28;20026;-48
2021/11/04 08:59:12;;;;;;;7.53;1.50;;;;;;;10.66;80.36;100548.31;5031391;28;20025;-47
2021/11/04 09:01:38;;;;;;;12.20;1.88;;;;;;;10.46;81.39;100560.75;5031826;28;20029;-47
2021/11/04 09:04:03;;;;;;;11.23;1.83;;;;;;;10.32;82.46;100565.94;5031445;28;20030;-46
2021/11/04 09:06:29;;;;;;;14.85;2.05;;;;;;;10.17;82.79;100565.09;5031686;28;20460;-48
2021/11/04 09:08:54;;;;;;;5.63;1.58;;;;;;;9.97;83.15;100561.28;5031940;28;20028;-46
2021/11/04 09:11:20;;;;;;;15.25;1.55;;;;;;;9.89;82.90;100572.94;5031734;28;20491;-47
2021/11/04 09:13:45;;;;;;;8.98;2.20;;;;;;;9.74;84.40;100577.47;5030657;28;20392;-47
2021/11/04 09:16:10;;;;;;;9.13;1.30;;;;;;;9.57;84.14;100574.13;5032059;28;20091;-49
2021/11/04 09:18:36;;;;;;;10.15;1.58;;;;;;;9.55;85.51;100589.56;5031716;28;20515;-50
2021/11/04 09:21:01;;;;;;;8.55;1.50;;;;;;;9.35;85.78;100582.03;5031894;28;20086;-53
2021/11/04 09:23:27;;;;;;;10.98;1.50;;;;;;;9.21;86.24;100577.41;5032036;28;20107;-52
2021/11/04 09:25:52;;;;;;;4.13;1.20;;;;;;;9.05;86.67;100581.06;5032981;28;20361;-53
2021/11/04 09:28:18;;;;;;;7.40;1.48;;;;;;;8.85;87.36;100566.47;5031934;28;20029;-52
2021/11/04 09:30:43;;;;;;;4.28;1.50;;;;;;;8.69;87.90;100564.69;5032873;28;20067;-52
2021/11/04 09:33:09;;;;;;;7.13;1.90;;;;;;;8.52;88.62;100556.72;5035402;28;20060;-55
2021/11/04 09:35:36;;;;;;;7.15;1.65;;;;;;;8.46;89.45;100554.75;5035306;28;20049;-55
2021/11/04 09:38:05;;;;;;;10.70;1.85;;;;;;;8.40;90.38;100544.75;5035521;28;20051;-55
2021/11/04 09:40:31;;;;;;;9.40;1.60;;;;;;;8.35;90.56;100545.22;5035024;28;20395;-58
2021/11/04 09:42:56;;;;;;;17.90;2.58;;;;;;;8.36;90.37;100538.84;5033919;28;20025;-58
2021/11/04 09:45:26;;;;;;;11.77;1.75;;;;;;;8.35;90.45;100545.22;5035299;28;20439;-58
2021/11/04 09:47:51;;;;;;;13.13;2.15;;;;;;;8.37;90.83;100550.41;5033710;28;20022;-58
2021/11/04 09:50:18;;;;;;;7.50;2.00;;;;;;;8.42;90.97;100556.09;5035062;28;20479;-56
2021/11/04 09:52:45;;;;;;;18.35;2.30;;;;;;;8.46;89.33;100554.75;5033716;28;20053;-57
2021/11/04 09:55:17;;;;;;;6.00;2.35;;;;;;;8.52;89.44;100553.22;5038689;28;20095;-54
2021/11/04 09:57:44;;;;;;;16.33;2.75;;;;;;;8.55;89.98;100559.06;5040185;28;20075;-53
2021/11/04 10:00:10;;;;;;;16.30;2.33;;;;;;;8.68;89.28;100552.28;5034766;28;20030;-53
2021/11/04 10:02:36;;;;;;;8.02;1.88;;;;;;;8.76;89.21;100560.28;5034732;28;20030;-49
2021/11/04 10:05:09;;;;;;;15.23;2.17;;;;;;;8.82;89.29;100562.28;5034823;28;20030;-48
2021/11/04 10:07:44;;;;;;;10.05;2.45;;;;;;;8.91;88.45;100558.50;5032991;28;20033;-47
2021/11/04 10:10:10;;;;;;;18.77;3.00;;;;;;;9.01;88.54;100563.66;5034789;28;20030;-50
2021/11/04 10:12:36;;;;;;;26.50;2.90;;;;;;;9.08;88.26;100566.44;5033202;28;20029;-47
2021/11/04 10:15:15;;;;;;;15.85;3.40;;;;;;;9.16;88.12;100577.13;5034360;28;20029;-51
2021/11/04 10:17:40;;;;;;;16.33;3.78;;;;;;;9.30;87.68;100573.69;5034552;28;20113;-49
2021/11/04 10:20:23;;;;;;;16.13;3.17;;;;;;;9.42;87.51;100576.75;5033296;28;20025;-48
2021/11/04 10:23:00;;;;;;;24.00;3.50;;;;;;;9.46;87.86;100583.44;5034037;28;20017;-49
2021/11/04 10:25:26;;;;;;;22.05;2.90;;;;;;;9.53;87.40;100583.53;5033127;28;20044;-51
2021/11/04 10:27:51;;;;;;;17.02;3.35;;;;;;;9.68;87.45;100590.63;5032807;28;20025;-49
2021/11/04 10:30:38;;;;;;;34.10;3.70;;;;;;;9.95;85.58;100582.13;5034328;28;20128;-47
2021/11/04 10:33:25;;;;;;;24.63;3.30;;;;;;;10.05;84.35;100591.59;5034686;28;20028;-47
2021/11/04 10:35:54;;;;;;;13.93;2.97;;;;;;;10.10;84.00;100580.28;5034272;28;20080;-47
2021/11/04 10:38:19;;;;;;;;;;;;;;;10.25;84.70;100589.19;5034656;28;20118;-50
2021/11/04 10:40:44;;;;;;;13.25;2.58;;;;;;;10.42;83.54;100591.72;5034115;28;19968;-48
2021/11/04 10:43:10;;;;;;;19.00;2.40;;;;;;;10.62;82.09;100584.72;5033920;28;20025;-50
2021/11/04 10:45:35;;;;;;;8.95;2.00;;;;;;;11.34;81.88;100583.00;5034258;28;20033;-49
2021/11/04 10:48:22;;;;;;;14.10;2.72;;;;;;;12.83;75.98;100594.34;5033786;28;20025;-46
2021/11/04 10:50:48;;;;;;;21.92;3.08;;;;;;;13.52;72.01;100587.84;5014156;28;20391;-49
2021/11/04 10:53:20;;;;;;;15.73;2.75;;;;;;;13.86;70.91;100590.53;5014108;28;20113;-47
2021/11/04 10:55:45;;;;;;;16.05;2.40;;;;;;;14.14;71.16;100590.28;5012736;28;20476;-47
2021/11/04 10:58:34;;;;;;;23.48;2.88;;;;;;;14.53;69.00;100592.06;5017634;28;20025;-47
2021/11/04 11:01:00;;;;;;;10.63;1.90;;;;;;;14.57;67.43;100596.03;5033624;28;20041;-48
2021/11/04 11:03:30;;;;;;;12.07;2.30;;;;;;;14.81;67.46;100590.91;5033323;28;20025;-48
2021/11/04 11:05:58;;;;;;;7.60;1.30;;;;;;;14.69;68.41;100599.72;5033972;28;20055;-48
2021/11/04 11:08:26;;;;;;;8.82;1.42;;;;;;;14.67;66.83;100595.56;5033927;28;20484;-50
2021/11/04 11:10:51;;;;;;;13.93;2.55;;;;;;;14.50;66.47;100606.00;5033402;28;20029;-47
2021/11/04 11:13:17;;;;;;;16.30;1.48;;;;;;;14.43;66.74;100599.81;5044525;28;20400;-48
2021/11/04 11:15:43;;;;;;;4.40;0.88;;;;;;;14.24;66.34;100596.09;5053673;28;20107;-48
2021/11/04 11:18:09;;;;;;;10.98;1.52;;;;;;;14.09;68.32;100601.75;5053647;28;20143;-50
2021/11/04 11:20:43;;;;;;;7.30;0.88;;;;;;;14.27;66.63;100599.22;5053116;28;20063;-48